Indianapolis, IN (46231)

10:04 AM EDT on September 02, 2015 (GMT -0400)
Avon Creek Estates | | Change Station
CLOSE
Current Station
Personal Weather Station
Location: Indianapolis, IN
Elevation: 784 ft
Nearby Weather Stations

Elev 784 ft 39.76 °N, 86.32 °W | Updated 1 second ago

Scattered Clouds
Scattered Clouds
76.8 °F
Feels Like 78 °F
N
0.2
Wind Variable Wind from SW
Gusts 2.5 mph

Today
High -- | Low -- °F
--% Chance of Precip.
Yesterday
High -- | Low -- °F
Precip. -- in
7:14 AM 8:15 PM
Waning Gibbous, 80% visible
Pressure 30.12 in
Visibility 7.0 miles
Clouds Few 8500 ft
Scattered Clouds 25000 ft
Heat Index 78 °F
Dew Point 70 °F
Humidity 81%
Rainfall 0.00 in
Snow Depth Not available.
UV 2.0 out of 12
Pollen 10.70 out of 12
Air Quality Not available.
Flu Activity Not available.
METAR KIND 021354Z 24005KT 7SM FEW085 SCT250 25/21 A3013 RMK AO2 SLP197 T02500206
Pressure 30.12 in
Visibility 7.0 miles
Clouds Few 8500 ft
Scattered Clouds 25000 ft
Heat Index 78 °F
Dew Point 70 °F
Humidity 81%
Rainfall 0.00 in
Snow Depth Not available.
UV 2.0 out of 12
Pollen 10.70 out of 12
Air Quality Not available.
Flu Activity Not available.
METAR KIND 021354Z 24005KT 7SM FEW085 SCT250 25/21 A3013 RMK AO2 SLP197 T02500206

10-Day Weather Forecast

×

Almanac

Astronomy

Sep. 02, 2015 Rise Set
Actual Time
Civil Twilight
Nautical Twilight
Astronomical Twilight
Moon
Length of Visible Light
Length of Day
Tomorrow will be .
, % of the Moon is Illuminated

Today's Extremes

State Highs State Lows

Community

WunderPhotos

Upload Photos

1,851,759 photos uploaded!

WunderBlogs® & News

Nearby

Air Quality

  Air Quality AQ Index Pollutant
Not available.

Snow Depth

Station Depth Elevation

Earthquake Activity

City Distance Mag. Time & Date
Minimum magnitude displayed is 2.5.

Coastal Water Temperatures

Place Temperature

Stations

Nearby Weather Stations

Station Location Temp. Windchill Dew Point Humidity Wind Precip. Elev Updated Type